Time;durP1;ratioP1;P1;durP2;ratioP2;P2;SDS_P1;SDS_P2;PMS_P1;PMS_P2;Temp;Humidity;BMP_temperature;BMP_pressure;BME280_temperature;BME280_humidity;BME280_pressure;Samples;Min_cycle;Max_cycle;Signal;HPM_P1;HPM_P2
2023/03/27 00:00:42;;;;;;;3.23;1.60;;;3.90;99.90;;;;;;5070711;28;20460;-69
2023/03/27 00:03:09;;;;;;;2.80;1.60;;;3.80;99.90;;;;;;5073358;28;20436;-69
2023/03/27 00:05:35;;;;;;;2.83;1.70;;;3.80;99.90;;;;;;5069842;28;20405;-69
2023/03/27 00:08:00;;;;;;;2.60;1.57;;;3.80;99.90;;;;;;5073544;28;20989;-68
2023/03/27 00:10:27;;;;;;;2.20;1.53;;;3.80;99.90;;;;;;5069635;28;20486;-69
2023/03/27 00:12:53;;;;;;;2.03;1.83;;;3.70;99.90;;;;;;5073385;28;20239;-69
2023/03/27 00:15:19;;;;;;;3.67;1.90;;;3.60;99.90;;;;;;5073852;28;20408;-68
2023/03/27 00:17:49;;;;;;;2.00;1.23;;;3.60;99.90;;;;;;5073395;28;20473;-69
2023/03/27 00:20:19;;;;;;;5.77;1.77;;;3.60;99.90;;;;;;5055737;28;20355;-69
2023/03/27 00:22:46;;;;;;;6.70;2.43;;;3.60;99.90;;;;;;5075442;28;20436;-69
2023/03/27 00:25:12;;;;;;;2.77;1.93;;;3.60;99.90;;;;;;5073731;28;20916;-68
2023/03/27 00:27:38;;;;;;;3.50;1.90;;;3.60;99.90;;;;;;5073204;28;20413;-68
2023/03/27 00:30:05;;;;;;;2.63;1.60;;;3.60;99.90;;;;;;5074054;28;20166;-68
2023/03/27 00:32:32;;;;;;;5.10;1.47;;;3.60;99.90;;;;;;5072826;28;20213;-68
2023/03/27 00:34:57;;;;;;;7.93;1.57;;;3.60;99.90;;;;;;5072241;28;20405;-68
2023/03/27 00:37:23;;;;;;;4.43;1.60;;;3.60;99.90;;;;;;5067193;28;20451;-68
2023/03/27 00:39:49;;;;;;;5.33;1.70;;;3.70;99.90;;;;;;5072569;28;20174;-68
2023/03/27 00:42:21;;;;;;;2.73;1.30;;;3.70;99.90;;;;;;5072489;28;20672;-68
2023/03/27 00:44:50;;;;;;;1.63;1.47;;;3.70;99.90;;;;;;5065509;28;20257;-68
2023/03/27 00:47:19;;;;;;;2.10;1.40;;;3.60;99.90;;;;;;5070426;28;20417;-68
2023/03/27 00:49:46;;;;;;;1.97;1.87;;;3.70;99.90;;;;;;5065583;28;20436;-68
2023/03/27 00:52:15;;;;;;;4.13;1.50;;;3.70;99.90;;;;;;5070053;28;20466;-68
2023/03/27 00:54:41;;;;;;;6.47;1.60;;;3.70;99.90;;;;;;5077539;28;20420;-67
2023/03/27 00:57:11;;;;;;;2.40;1.60;;;3.70;99.90;;;;;;5067449;28;20451;-69
2023/03/27 00:59:40;;;;;;;3.63;1.50;;;3.70;99.90;;;;;;5072333;28;20495;-69
2023/03/27 01:02:06;;;;;;;1.37;1.20;;;3.60;99.90;;;;;;5072223;28;20556;-69
2023/03/27 01:04:34;;;;;;;2.87;1.63;;;3.60;99.90;;;;;;5072493;28;20902;-68
2023/03/27 01:07:02;;;;;;;3.63;2.10;;;3.60;99.90;;;;;;5074206;28;20772;-68
2023/03/27 01:09:28;;;;;;;4.20;1.93;;;3.60;99.90;;;;;;5079378;28;20906;-69
2023/03/27 01:12:28;;;;;;;2.57;1.83;;;3.50;99.90;;;;;;5076561;28;20440;-68
2023/03/27 01:15:28;;;;;;;4.83;1.80;;;3.50;99.90;;;;;;5069186;28;20749;-68
2023/03/27 01:18:03;;;;;;;1.50;1.40;;;3.40;99.90;;;;;;5059484;28;20424;-68
2023/03/27 01:20:45;;;;;;;8.33;1.93;;;3.40;99.90;;;;;;5065394;28;20957;-69
2023/03/27 01:23:24;;;;;;;2.50;1.20;;;3.30;99.90;;;;;;5067329;28;20427;-68
2023/03/27 01:26:10;;;;;;;2.23;1.50;;;3.30;99.90;;;;;;5064322;28;20431;-67
2023/03/27 01:28:57;;;;;;;3.13;1.40;;;3.20;99.90;;;;;;5070216;28;20975;-68
2023/03/27 01:31:37;;;;;;;2.63;1.90;;;3.20;99.90;;;;;;5066812;28;20405;-68
2023/03/27 01:34:21;;;;;;;2.30;2.10;;;3.30;99.90;;;;;;5071584;28;20518;-68
2023/03/27 01:37:17;;;;;;;1.37;1.27;;;3.20;99.90;;;;;;5071551;28;20416;-69
2023/03/27 01:40:29;;;;;;;1.20;1.10;;;3.30;99.90;;;;;;5071261;28;20401;-68
2023/03/27 01:43:19;;;;;;;4.13;2.10;;;3.30;99.90;;;;;;5054300;28;20867;-68
2023/03/27 01:45:45;;;;;;;2.97;2.07;;;3.30;99.90;;;;;;5071313;28;20416;-68
2023/03/27 01:48:23;;;;;;;1.80;1.70;;;3.30;99.90;;;;;;5068450;28;20450;-68
2023/03/27 01:50:56;;;;;;;4.97;2.03;;;3.30;99.90;;;;;;5071015;28;20524;-69
2023/03/27 01:53:36;;;;;;;2.90;1.53;;;3.20;99.90;;;;;;5070215;28;20433;-69
2023/03/27 01:56:30;;;;;;;1.37;1.10;;;3.20;99.90;;;;;;5064980;28;20400;-70
2023/03/27 01:59:15;;;;;;;2.10;1.80;;;3.10;99.90;;;;;;5070815;28;20723;-69
2023/03/27 02:01:45;;;;;;;2.20;1.63;;;3.10;99.90;;;;;;5052571;28;20460;-69
2023/03/27 02:04:19;;;;;;;1.87;1.60;;;3.10;99.90;;;;;;5069737;28;20881;-68
2023/03/27 02:06:54;;;;;;;7.40;1.40;;;3.10;99.90;;;;;;5067863;28;20411;-69
2023/03/27 02:09:32;;;;;;;2.60;1.70;;;3.00;99.90;;;;;;5070623;28;20404;-67
2023/03/27 02:12:04;;;;;;;6.40;1.50;;;3.00;99.90;;;;;;5052699;28;20451;-68
2023/03/27 02:14:37;;;;;;;6.43;1.87;;;3.00;99.90;;;;;;5052810;28;20412;-69
2023/03/27 02:17:08;;;;;;;1.60;1.50;;;3.00;99.90;;;;;;5070790;28;20412;-69
2023/03/27 02:19:46;;;;;;;3.90;1.87;;;3.00;99.90;;;;;;5070449;28;20423;-67
2023/03/27 02:22:13;;;;;;;1.60;1.50;;;2.90;99.90;;;;;;5071007;28;20836;-69
2023/03/27 02:24:39;;;;;;;3.20;1.60;;;2.90;99.90;;;;;;5070718;28;20491;-73
2023/03/27 02:27:14;;;;;;;2.30;2.13;;;2.90;99.90;;;;;;5070332;28;20409;-69
2023/03/27 02:30:21;;;;;;;1.63;1.37;;;2.80;99.90;;;;;;5069409;28;20416;-68
2023/03/27 02:33:07;;;;;;;3.07;2.13;;;2.70;99.90;;;;;;5008668;28;20816;-68
2023/03/27 02:35:45;;;;;;;3.10;2.07;;;2.70;99.90;;;;;;5066355;28;20417;-69
2023/03/27 02:38:34;;;;;;;3.63;1.90;;;2.60;99.90;;;;;;5067301;28;20434;-69
2023/03/27 02:41:19;;;;;;;3.93;1.27;;;2.50;99.90;;;;;;5064367;28;20466;-69
2023/03/27 02:44:13;;;;;;;1.57;1.47;;;2.50;99.90;;;;;;5070538;28;20443;-68
2023/03/27 02:47:19;;;;;;;1.30;1.20;;;2.40;99.90;;;;;;5070627;28;20902;-69
2023/03/27 02:50:04;;;;;;;1.33;1.23;;;2.40;99.90;;;;;;5058841;28;20421;-68
2023/03/27 02:52:39;;;;;;;1.40;1.20;;;2.40;99.90;;;;;;5069903;28;20803;-69
2023/03/27 02:55:10;;;;;;;1.93;1.20;;;2.40;99.90;;;;;;5070054;28;20438;-69
2023/03/27 02:57:38;;;;;;;1.80;1.20;;;2.40;99.90;;;;;;5070188;28;20795;-68
2023/03/27 03:00:11;;;;;;;0.90;0.90;;;2.40;99.90;;;;;;5070287;28;20473;-69
2023/03/27 03:02:38;;;;;;;3.10;1.20;;;2.40;99.90;;;;;;5071267;28;20424;-68
2023/03/27 03:05:16;;;;;;;2.50;1.93;;;2.40;99.90;;;;;;5074470;28;20412;-68
2023/03/27 03:07:44;;;;;;;1.30;1.00;;;2.40;99.90;;;;;;5074459;28;20465;-67
2023/03/27 03:10:10;;;;;;;1.20;1.10;;;2.40;99.90;;;;;;5073950;28;20402;-67
2023/03/27 03:12:36;;;;;;;2.63;1.20;;;2.40;99.90;;;;;;5073407;28;20507;-69
2023/03/27 03:15:02;;;;;;;1.30;1.20;;;2.50;99.90;;;;;;5073566;28;20925;-69
2023/03/27 03:17:28;;;;;;;0.90;0.90;;;2.50;99.90;;;;;;5067947;28;20167;-69
2023/03/27 03:19:53;;;;;;;1.23;1.10;;;2.40;99.90;;;;;;5073904;28;20396;-69
2023/03/27 03:22:19;;;;;;;1.73;1.10;;;2.30;99.90;;;;;;5073336;28;20221;-68
2023/03/27 03:24:45;;;;;;;1.13;1.03;;;2.30;99.90;;;;;;5073517;28;20170;-67
2023/03/27 03:27:13;;;;;;;1.07;0.97;;;2.20;99.90;;;;;;5073332;28;20780;-70
2023/03/27 03:29:38;;;;;;;3.13;1.60;;;2.20;99.90;;;;;;5072732;28;20166;-70
2023/03/27 03:32:05;;;;;;;1.77;1.33;;;2.10;99.90;;;;;;5070626;28;20814;-69
2023/03/27 03:34:32;;;;;;;1.63;1.10;;;2.00;99.90;;;;;;5072997;28;20604;-69
2023/03/27 03:36:58;;;;;;;1.77;1.30;;;2.00;99.90;;;;;;5073120;28;20431;-68
2023/03/27 03:39:24;;;;;;;1.70;1.40;;;2.00;99.90;;;;;;5073010;28;20413;-70
2023/03/27 03:41:50;;;;;;;1.33;1.07;;;1.90;99.90;;;;;;5068899;28;20487;-68
2023/03/27 03:44:16;;;;;;;1.20;1.10;;;1.90;99.90;;;;;;5073019;28;20645;-68
2023/03/27 03:46:41;;;;;;;1.57;1.20;;;1.80;99.90;;;;;;5072950;28;20546;-68
2023/03/27 03:49:08;;;;;;;1.80;1.10;;;1.80;99.90;;;;;;5073089;28;20879;-70
2023/03/27 03:51:35;;;;;;;1.53;1.43;;;1.80;99.90;;;;;;5067136;28;20278;-69
2023/03/27 03:54:01;;;;;;;2.60;1.20;;;1.70;99.90;;;;;;5073243;28;20950;-70
2023/03/27 03:56:28;;;;;;;2.00;1.20;;;1.70;99.90;;;;;;5072151;28;20954;-69
2023/03/27 03:58:54;;;;;;;4.33;2.13;;;1.60;99.90;;;;;;5072732;28;20752;-68
2023/03/27 04:01:21;;;;;;;1.90;1.63;;;1.60;99.90;;;;;;5072623;28;20459;-69
2023/03/27 04:03:48;;;;;;;1.33;1.10;;;1.60;99.90;;;;;;5073234;28;20474;-68
2023/03/27 04:06:16;;;;;;;1.27;1.17;;;1.60;99.90;;;;;;5070834;28;20412;-70
2023/03/27 04:08:43;;;;;;;2.20;1.53;;;1.60;99.90;;;;;;5073110;28;20929;-70
2023/03/27 04:11:09;;;;;;;1.67;1.30;;;1.60;99.90;;;;;;5073556;28;20848;-69
2023/03/27 04:13:35;;;;;;;1.20;1.10;;;1.50;99.90;;;;;;5072755;28;20432;-68
2023/03/27 04:16:00;;;;;;;3.40;1.40;;;1.40;99.90;;;;;;5072773;28;20511;-70
2023/03/27 04:18:29;;;;;;;1.50;1.40;;;1.40;99.90;;;;;;5074778;28;20224;-68
2023/03/27 04:20:57;;;;;;;2.87;1.43;;;1.40;99.90;;;;;;5074890;28;20206;-68
2023/03/27 04:23:29;;;;;;;1.77;1.67;;;1.40;99.90;;;;;;5077503;28;20433;-68
2023/03/27 04:25:58;;;;;;;3.53;1.60;;;1.40;99.90;;;;;;5072164;28;20458;-67
2023/03/27 04:28:25;;;;;;;1.83;1.40;;;1.40;99.90;;;;;;5054305;28;20953;-69
2023/03/27 04:30:51;;;;;;;1.63;1.30;;;1.40;99.90;;;;;;5070494;28;20784;-67
2023/03/27 04:33:17;;;;;;;3.23;2.20;;;1.40;99.90;;;;;;5071665;28;20448;-67
2023/03/27 04:35:44;;;;;;;1.53;1.40;;;1.30;99.90;;;;;;5072060;28;20412;-68
2023/03/27 04:38:11;;;;;;;2.47;1.70;;;1.30;99.90;;;;;;5072072;28;20297;-69
2023/03/27 04:40:37;;;;;;;1.87;1.40;;;1.20;99.90;;;;;;5072244;28;20467;-70
2023/03/27 04:43:03;;;;;;;1.93;1.40;;;1.30;99.90;;;;;;5070924;28;20424;-68
2023/03/27 04:45:29;;;;;;;4.90;1.70;;;1.30;99.90;;;;;;5072251;28;20543;-70
2023/03/27 04:47:54;;;;;;;1.63;1.40;;;1.20;99.90;;;;;;5069723;28;20469;-69
2023/03/27 04:50:20;;;;;;;4.03;1.27;;;1.20;99.90;;;;;;5071906;28;20280;-68
2023/03/27 04:52:48;;;;;;;2.10;1.87;;;1.30;99.90;;;;;;5072013;28;20187;-67
2023/03/27 04:55:14;;;;;;;4.47;1.73;;;1.20;99.90;;;;;;5071816;28;20231;-69
2023/03/27 04:57:46;;;;;;;1.93;1.60;;;1.10;99.90;;;;;;5069459;28;20883;-69
2023/03/27 05:00:17;;;;;;;1.50;1.40;;;1.20;99.90;;;;;;5071223;28;20833;-69
2023/03/27 05:02:44;;;;;;;4.10;1.30;;;1.30;99.90;;;;;;5068890;28;20440;-70
2023/03/27 05:05:10;;;;;;;3.30;1.40;;;1.30;99.90;;;;;;5071385;28;20405;-69
2023/03/27 05:07:36;;;;;;;1.57;1.47;;;1.40;99.90;;;;;;5072397;28;20412;-69
2023/03/27 05:10:02;;;;;;;3.60;2.07;;;1.50;99.90;;;;;;5072455;28;20409;-68
2023/03/27 05:12:28;;;;;;;1.93;1.77;;;1.60;99.90;;;;;;5076115;28;20424;-69
2023/03/27 05:14:53;;;;;;;3.90;2.30;;;1.60;99.90;;;;;;5081618;28;20487;-68
2023/03/27 05:17:19;;;;;;;3.00;1.90;;;1.70;99.90;;;;;;5081191;28;20178;-68
2023/03/27 05:19:45;;;;;;;2.57;1.80;;;1.70;99.90;;;;;;5075049;28;20166;-69
2023/03/27 05:22:12;;;;;;;3.03;2.00;;;1.60;99.90;;;;;;5071529;28;20495;-69
2023/03/27 05:24:38;;;;;;;1.37;1.27;;;1.60;99.90;;;;;;5071241;28;20165;-68
2023/03/27 05:27:04;;;;;;;2.10;1.73;;;1.60;99.90;;;;;;5070543;28;20483;-71
2023/03/27 05:29:30;;;;;;;1.80;1.67;;;1.60;99.90;;;;;;5071258;28;20623;-69
2023/03/27 05:31:55;;;;;;;6.80;2.07;;;1.50;99.90;;;;;;5071484;28;20428;-68
2023/03/27 05:34:21;;;;;;;1.60;1.50;;;1.50;99.90;;;;;;5071247;28;20178;-70
2023/03/27 05:36:48;;;;;;;1.40;1.30;;;1.50;99.90;;;;;;5070044;28;20171;-70
2023/03/27 05:39:14;;;;;;;4.90;2.70;;;1.50;99.90;;;;;;5071383;28;20181;-67
2023/03/27 05:41:40;;;;;;;3.07;1.83;;;1.50;99.90;;;;;;5071427;28;20535;-69
2023/03/27 05:44:06;;;;;;;1.73;1.57;;;1.40;99.90;;;;;;5070387;28;20559;-68
2023/03/27 05:46:31;;;;;;;1.93;1.60;;;1.40;99.90;;;;;;5066596;28;20543;-69
2023/03/27 05:48:58;;;;;;;2.33;1.43;;;1.50;99.90;;;;;;5071230;28;20409;-69
2023/03/27 05:51:25;;;;;;;3.57;1.37;;;1.50;99.90;;;;;;5065663;28;20194;-69
2023/03/27 05:53:51;;;;;;;6.30;1.70;;;1.50;99.90;;;;;;5071287;28;20923;-68
2023/03/27 05:56:16;;;;;;;2.00;1.80;;;2.00;99.90;;;;;;5071494;28;20662;-68
2023/03/27 05:58:42;;;;;;;2.30;1.73;;;2.90;99.90;;;;;;5070988;28;20167;-69
2023/03/27 06:01:09;;;;;;;1.93;1.77;;;3.20;99.90;;;;;;5071496;28;20198;-68
2023/03/27 06:03:37;;;;;;;1.67;1.40;;;3.20;99.90;;;;;;5067066;28;20193;-67
2023/03/27 06:06:10;;;;;;;1.97;1.20;;;3.50;99.90;;;;;;5069454;28;20747;-69
2023/03/27 06:08:36;;;;;;;1.73;1.30;;;4.00;99.90;;;;;;5071327;28;20933;-67
2023/03/27 06:11:08;;;;;;;2.40;1.53;;;4.10;99.90;;;;;;5068308;28;20826;-69
2023/03/27 06:13:38;;;;;;;4.03;1.57;;;4.30;99.90;;;;;;5071302;28;20489;-68
2023/03/27 06:16:04;;;;;;;1.70;1.40;;;5.10;99.90;;;;;;5071053;28;20567;-70
2023/03/27 06:18:31;;;;;;;1.50;1.20;;;5.10;99.90;;;;;;5052097;28;20758;-67
2023/03/27 06:20:57;;;;;;;1.97;1.17;;;5.30;99.90;;;;;;5069548;28;20458;-70
2023/03/27 06:23:22;;;;;;;1.60;1.50;;;6.00;99.90;;;;;;5072198;28;21013;-69
2023/03/27 06:25:50;;;;;;;1.97;1.27;;;6.40;99.90;;;;;;5068357;28;20201;-68
2023/03/27 06:28:15;;;;;;;1.63;1.03;;;6.10;99.90;;;;;;5070913;28;20176;-69
2023/03/27 06:30:41;;;;;;;1.10;1.00;;;6.40;99.90;;;;;;5064182;28;20411;-69
2023/03/27 06:33:08;;;;;;;1.87;1.30;;;6.70;99.90;;;;;;5070491;28;20201;-69
2023/03/27 06:35:34;;;;;;;1.30;1.20;;;6.70;99.90;;;;;;5065405;28;20415;-69
2023/03/27 06:38:03;;;;;;;2.10;1.43;;;6.80;99.90;;;;;;5054177;28;20478;-68
2023/03/27 06:40:30;;;;;;;2.17;1.70;;;7.80;99.90;;;;;;5075307;28;20474;-67
2023/03/27 06:43:04;;;;;;;3.30;1.70;;;7.80;99.90;;;;;;5070954;28;20468;-68
2023/03/27 06:45:45;;;;;;;1.90;1.50;;;8.20;99.90;;;;;;5071861;28;20413;-69
2023/03/27 06:48:12;;;;;;;1.50;1.30;;;8.30;99.90;;;;;;5074076;28;20404;-67
2023/03/27 06:50:38;;;;;;;2.40;1.23;;;7.60;99.90;;;;;;5071898;28;20419;-68
2023/03/27 06:53:04;;;;;;;5.23;1.50;;;6.80;99.90;;;;;;5053190;28;20444;-68
2023/03/27 06:55:31;;;;;;;1.60;1.30;;;6.50;99.90;;;;;;5074186;28;20876;-69
2023/03/27 06:58:00;;;;;;;3.40;1.90;;;6.20;99.90;;;;;;5074413;28;20411;-67
2023/03/27 07:00:28;;;;;;;1.83;1.33;;;6.30;99.90;;;;;;5072961;28;20963;-67
2023/03/27 07:02:59;;;;;;;1.93;1.70;;;5.90;99.90;;;;;;5052304;28;20430;-70
2023/03/27 07:05:27;;;;;;;2.27;1.63;;;5.50;99.90;;;;;;5068783;28;20399;-68
2023/03/27 07:07:53;;;;;;;2.83;1.97;;;5.70;99.90;;;;;;5070020;28;20430;-68
2023/03/27 07:10:20;;;;;;;4.90;1.33;;;6.00;99.90;;;;;;5070293;28;20454;-67
2023/03/27 07:12:48;;;;;;;6.87;1.43;;;6.00;99.90;;;;;;5074515;28;20456;-69
2023/03/27 07:15:15;;;;;;;2.03;1.40;;;5.70;99.90;;;;;;5073946;28;20410;-68
2023/03/27 07:17:42;;;;;;;1.60;1.43;;;6.10;99.90;;;;;;5073572;28;20412;-68
2023/03/27 07:20:09;;;;;;;1.60;1.37;;;6.00;99.90;;;;;;5055853;28;20412;-68
2023/03/27 07:22:35;;;;;;;3.20;2.03;;;6.70;99.90;;;;;;5073384;28;20455;-68
2023/03/27 07:25:03;;;;;;;1.60;1.50;;;6.90;99.90;;;;;;5073798;28;20447;-69
2023/03/27 07:27:29;;;;;;;2.60;2.30;;;7.70;99.90;;;;;;5072434;28;20411;-69
2023/03/27 07:29:57;;;;;;;3.47;1.73;;;8.00;99.90;;;;;;5073816;28;20413;-68
2023/03/27 07:32:23;;;;;;;1.70;1.60;;;7.30;99.90;;;;;;5071587;28;20293;-67
2023/03/27 07:34:49;;;;;;;2.07;1.67;;;8.50;99.90;;;;;;5073583;28;20508;-68
2023/03/27 07:37:14;;;;;;;2.30;1.70;;;7.50;99.90;;;;;;5071011;28;20190;-68
2023/03/27 07:39:40;;;;;;;1.30;1.13;;;7.60;99.90;;;;;;5074776;28;20405;-67
2023/03/27 07:42:07;;;;;;;2.63;1.23;;;7.00;99.90;;;;;;5077498;28;20233;-68
2023/03/27 07:44:33;;;;;;;1.73;1.20;;;6.90;99.90;;;;;;5077093;28;20529;-67
2023/03/27 07:46:59;;;;;;;1.43;1.33;;;6.40;99.90;;;;;;5076384;28;20409;-67
2023/03/27 07:49:25;;;;;;;2.33;1.57;;;6.20;99.90;;;;;;5076031;28;20320;-68
2023/03/27 07:51:52;;;;;;;1.70;1.50;;;6.30;99.90;;;;;;5095053;22;20873;-72
2023/03/27 07:54:18;;;;;;;1.43;1.27;;;5.80;99.90;;;;;;5072772;28;20787;-71
2023/03/27 07:56:43;;;;;;;1.30;1.20;;;5.90;99.90;;;;;;5071002;28;20481;-71
2023/03/27 07:59:10;;;;;;;1.83;1.37;;;5.60;99.90;;;;;;5073029;28;20170;-72
2023/03/27 08:01:36;;;;;;;1.33;1.23;;;4.70;99.90;;;;;;5073313;28;20236;-70
2023/03/27 08:04:13;;;;;;;10.80;1.90;;;5.00;99.90;;;;;;5073228;28;20486;-74
2023/03/27 08:06:38;;;;;;;1.20;1.10;;;6.00;99.90;;;;;;5072569;28;20906;-73
2023/03/27 08:09:04;;;;;;;1.20;1.10;;;5.90;99.90;;;;;;5054262;28;20496;-72
2023/03/27 08:11:30;;;;;;;5.43;1.43;;;5.80;99.90;;;;;;5072065;28;20274;-71
2023/03/27 08:13:57;;;;;;;1.20;1.10;;;6.60;99.90;;;;;;5072249;28;20174;-71
2023/03/27 08:16:26;;;;;;;2.03;1.20;;;6.90;99.90;;;;;;5072013;28;20407;-72
2023/03/27 08:18:52;;;;;;;1.40;0.90;;;7.50;99.90;;;;;;5072384;28;20503;-73
2023/03/27 08:21:18;;;;;;;3.57;1.30;;;8.20;99.90;;;;;;5069795;28;20564;-70
2023/03/27 08:23:44;;;;;;;2.60;1.20;;;8.60;99.90;;;;;;5072298;28;20170;-71
2023/03/27 08:26:10;;;;;;;1.50;1.40;;;7.90;99.90;;;;;;5072306;28;20420;-72
2023/03/27 08:28:36;;;;;;;4.17;3.90;;;7.80;99.90;;;;;;5072107;28;20413;-72
2023/03/27 08:31:10;;;;;;;3.80;1.40;;;7.20;99.90;;;;;;5072239;28;20202;-71
2023/03/27 08:33:36;;;;;;;1.00;0.90;;;6.90;99.90;;;;;;5072252;28;20483;-71
2023/03/27 08:36:01;;;;;;;0.90;0.70;;;7.60;99.90;;;;;;5048671;28;20443;-73
2023/03/27 08:38:31;;;;;;;1.17;1.10;;;8.10;99.90;;;;;;5068557;28;20588;-73
2023/03/27 08:40:58;;;;;;;1.20;1.10;;;7.40;99.90;;;;;;5072590;28;20210;-72
2023/03/27 08:43:42;;;;;;;1.03;0.90;;;8.50;99.90;;;;;;5072354;28;20408;-72
2023/03/27 08:46:19;;;;;;;2.70;1.30;;;7.90;99.90;;;;;;5067181;28;20606;-74
2023/03/27 08:48:57;;;;;;;1.53;1.23;;;7.60;99.90;;;;;;5071940;28;20400;-72
2023/03/27 08:51:29;;;;;;;1.37;1.10;;;6.50;99.90;;;;;;5068515;28;20458;-72
2023/03/27 08:54:24;;;;;;;1.27;1.10;;;6.60;99.90;;;;;;5067258;28;20400;-73
2023/03/27 08:56:50;;;;;;;2.20;1.13;;;6.50;99.90;;;;;;5071557;28;20445;-71
2023/03/27 08:59:26;;;;;;;2.80;1.23;;;6.80;99.90;;;;;;5067482;28;21007;-71
2023/03/27 09:02:19;;;;;;;1.63;1.10;;;6.00;99.90;;;;;;5063739;28;20800;-72
2023/03/27 09:05:21;;;;;;;1.00;0.90;;;6.70;99.90;;;;;;5071148;28;20408;-72
2023/03/27 09:07:59;;;;;;;1.47;1.37;;;6.90;99.90;;;;;;5058887;28;20924;-71
2023/03/27 09:10:49;;;;;;;1.70;1.50;;;7.80;99.90;;;;;;5071576;28;20769;-72
2023/03/27 09:13:45;;;;;;;1.33;1.17;;;7.60;99.90;;;;;;5072336;28;20799;-72
2023/03/27 09:16:20;;;;;;;1.20;1.10;;;7.80;99.90;;;;;;5062404;28;20460;-71
2023/03/27 09:19:02;;;;;;;2.50;1.37;;;8.10;99.90;;;;;;5071276;28;20450;-72
2023/03/27 09:21:56;;;;;;;0.93;0.93;;;7.50;99.90;;;;;;5071121;28;20513;-72
2023/03/27 09:24:32;;;;;;;3.87;1.10;;;7.80;99.90;;;;;;5071227;28;20423;-75
2023/03/27 09:27:09;;;;;;;5.40;2.80;;;7.30;99.90;;;;;;5041956;28;20934;-72
2023/03/27 09:29:40;;;;;;;3.00;1.90;;;7.30;99.90;;;;;;5067203;28;20527;-73
2023/03/27 09:32:13;;;;;;;2.47;1.67;;;7.50;99.90;;;;;;5072225;28;20428;-73
2023/03/27 09:34:40;;;;;;;2.47;1.00;;;7.70;99.90;;;;;;5058209;28;20427;-73
2023/03/27 09:37:11;;;;;;;1.20;1.00;;;7.30;99.90;;;;;;5072420;28;20942;-73
2023/03/27 09:39:42;;;;;;;1.83;1.60;;;7.20;99.90;;;;;;5071746;28;20423;-73
2023/03/27 09:42:25;;;;;;;1.60;1.17;;;7.20;99.90;;;;;;5066917;28;20922;-73
2023/03/27 09:44:55;;;;;;;2.23;1.37;;;7.00;99.90;;;;;;5050763;28;20424;-74
2023/03/27 09:47:27;;;;;;;3.23;1.37;;;7.50;99.90;;;;;;5055224;28;20454;-73
2023/03/27 09:49:57;;;;;;;1.67;1.03;;;7.50;99.90;;;;;;5067378;28;20418;-72
2023/03/27 09:52:39;;;;;;;1.33;1.23;;;7.20;99.90;;;;;;5071357;28;20443;-73
2023/03/27 09:55:25;;;;;;;1.97;1.13;;;7.10;99.90;;;;;;5070448;28;20432;-73
2023/03/27 09:58:07;;;;;;;1.10;1.00;;;6.50;99.90;;;;;;5046366;28;20516;-72
2023/03/27 10:00:34;;;;;;;4.40;2.10;;;7.40;99.90;;;;;;5071622;28;20472;-72
2023/03/27 10:02:59;;;;;;;1.90;1.17;;;7.50;99.90;;;;;;5072643;28;20782;-73
2023/03/27 10:05:25;;;;;;;1.20;1.10;;;7.70;99.90;;;;;;5072883;28;20416;-72
2023/03/27 10:07:51;;;;;;;1.03;0.93;;;6.60;99.90;;;;;;5072256;28;20180;-71
2023/03/27 10:10:19;;;;;;;1.20;1.10;;;7.00;99.90;;;;;;5073480;28;20495;-73
2023/03/27 10:12:52;;;;;;;3.60;1.10;;;7.60;99.90;;;;;;5073337;28;20796;-71
2023/03/27 10:15:37;;;;;;;4.20;1.73;;;7.30;99.90;;;;;;5077567;28;20474;-72
2023/03/27 10:18:07;;;;;;;1.77;1.03;;;7.40;99.90;;;;;;5070832;28;20411;-71
2023/03/27 10:20:33;;;;;;;2.50;1.10;;;6.80;99.90;;;;;;5076521;28;20470;-71
2023/03/27 10:23:01;;;;;;;2.50;1.10;;;6.70;99.90;;;;;;5076975;28;20413;-72
2023/03/27 10:25:38;;;;;;;2.80;1.20;;;6.70;99.90;;;;;;5075650;28;20410;-73
2023/03/27 10:28:27;;;;;;;1.83;1.40;;;6.70;99.90;;;;;;5063749;28;20435;-72
2023/03/27 10:31:09;;;;;;;1.30;1.17;;;6.40;99.90;;;;;;5067774;28;20451;-72
2023/03/27 10:33:40;;;;;;;2.33;1.30;;;6.60;99.90;;;;;;5057421;28;20519;-73
2023/03/27 10:36:08;;;;;;;1.37;1.20;;;6.90;99.90;;;;;;5074785;28;20438;-72
2023/03/27 10:38:36;;;;;;;3.03;0.97;;;6.80;99.90;;;;;;5061973;28;20526;-73
2023/03/27 10:41:08;;;;;;;1.20;1.10;;;6.70;99.90;;;;;;5073595;28;20461;-74
2023/03/27 10:43:43;;;;;;;2.20;1.23;;;6.50;99.70;;;;;;5075360;28;20401;-72
2023/03/27 10:46:21;;;;;;;1.53;1.23;;;6.50;99.40;;;;;;5075134;28;20412;-72
2023/03/27 10:49:24;;;;;;;1.30;1.20;;;7.00;99.30;;;;;;5074568;28;20415;-73
2023/03/27 10:52:11;;;;;;;1.03;0.93;;;7.30;99.90;;;;;;4993183;28;20467;-73
2023/03/27 10:54:53;;;;;;;1.33;1.23;;;7.10;98.10;;;;;;5070329;28;20436;-72
2023/03/27 10:57:31;;;;;;;1.40;1.30;;;6.90;98.80;;;;;;5057056;28;20732;-74
2023/03/27 11:00:21;;;;;;;1.70;1.20;;;6.90;99.90;;;;;;5072829;28;20828;-72
2023/03/27 11:03:02;;;;;;;0.90;0.90;;;6.80;99.90;;;;;;5074006;28;20934;-72
2023/03/27 11:05:33;;;;;;;1.20;1.10;;;6.90;99.90;;;;;;5074682;28;20408;-73
2023/03/27 11:08:14;;;;;;;1.10;1.00;;;7.20;98.60;;;;;;5074574;28;20906;-72
2023/03/27 11:10:44;;;;;;;1.67;1.10;;;6.70;97.70;;;;;;5072192;28;20466;-73
2023/03/27 11:13:35;;;;;;;2.10;1.70;;;7.30;98.30;;;;;;5073833;28;20413;-73
2023/03/27 11:16:29;;;;;;;1.10;1.00;;;7.40;99.20;;;;;;5064296;28;20410;-72
2023/03/27 11:19:03;;;;;;;1.10;1.00;;;7.80;98.20;;;;;;5067643;28;20419;-72
2023/03/27 11:21:37;;;;;;;1.20;1.10;;;7.50;95.20;;;;;;5074867;28;20558;-73
2023/03/27 11:24:11;;;;;;;1.93;1.10;;;7.60;95.40;;;;;;5071464;28;20417;-73
2023/03/27 11:26:45;;;;;;;1.83;1.57;;;7.60;95.60;;;;;;5073070;28;20739;-77
2023/03/27 11:29:31;;;;;;;2.50;1.33;;;7.30;96.50;;;;;;5070696;28;20474;-74
2023/03/27 11:32:10;;;;;;;2.67;2.00;;;7.60;97.80;;;;;;5073429;28;20429;-76
2023/03/27 11:34:43;;;;;;;2.23;1.00;;;7.30;95.50;;;;;;5073647;28;20405;-75
2023/03/27 11:37:21;;;;;;;1.13;1.00;;;7.60;95.50;;;;;;5069111;28;20812;-73
2023/03/27 11:40:11;;;;;;;1.13;1.00;;;7.50;95.10;;;;;;5073268;28;20768;-72
2023/03/27 11:42:41;;;;;;;1.83;1.60;;;7.10;95.30;;;;;;5072750;28;20916;-72
2023/03/27 11:45:16;;;;;;;2.30;1.37;;;7.00;94.80;;;;;;5073373;28;20401;-73
2023/03/27 11:48:13;;;;;;;1.90;1.40;;;6.80;94.30;;;;;;5073369;28;20423;-72
2023/03/27 11:50:59;;;;;;;1.30;1.20;;;7.10;95.10;;;;;;5073041;28;20443;-73
2023/03/27 11:53:50;;;;;;;1.43;0.90;;;7.20;94.70;;;;;;5073022;28;20916;-73
2023/03/27 11:56:37;;;;;;;1.40;1.20;;;7.40;94.60;;;;;;5073423;28;20830;-73
2023/03/27 11:59:06;;;;;;;1.07;0.97;;;7.50;95.00;;;;;;5070937;28;20406;-72
2023/03/27 12:01:31;;;;;;;2.63;1.80;;;7.70;95.50;;;;;;5072315;28;20455;-73
2023/03/27 12:04:35;;;;;;;1.73;1.20;;;7.60;95.50;;;;;;5071288;28;20500;-72
2023/03/27 12:07:09;;;;;;;2.50;1.10;;;7.30;95.10;;;;;;5078978;28;20186;-72
2023/03/27 12:10:10;;;;;;;1.20;1.10;;;7.20;95.40;;;;;;5073054;28;20404;-73
2023/03/27 12:12:53;;;;;;;1.50;1.10;;;7.40;94.20;;;;;;5055709;28;20474;-73
2023/03/27 12:15:38;;;;;;;1.20;0.90;;;7.10;94.30;;;;;;5074346;28;20450;-74
2023/03/27 12:18:15;;;;;;;0.90;0.90;;;7.00;94.80;;;;;;5071204;28;20506;-72
2023/03/27 12:20:51;;;;;;;0.83;0.83;;;7.00;94.60;;;;;;5073119;28;20497;-73
2023/03/27 12:23:35;;;;;;;1.20;1.00;;;6.90;95.40;;;;;;5073213;28;20407;-73
2023/03/27 12:26:26;;;;;;;1.33;1.03;;;7.00;95.70;;;;;;5064724;28;20416;-74
2023/03/27 12:29:28;;;;;;;0.80;0.80;;;7.10;96.20;;;;;;5073140;28;20439;-73
2023/03/27 12:32:12;;;;;;;1.93;0.90;;;7.30;97.00;;;;;;5073175;28;20428;-74
2023/03/27 12:34:51;;;;;;;1.30;1.17;;;7.50;97.00;;;;;;5074431;28;20420;-73
2023/03/27 12:37:23;;;;;;;1.10;1.00;;;7.70;96.40;;;;;;5072826;28;20404;-73
2023/03/27 12:39:56;;;;;;;2.70;1.00;;;7.40;95.90;;;;;;5073765;28;20989;-73
2023/03/27 12:43:03;;;;;;;1.67;0.90;;;7.40;94.60;;;;;;5073004;28;20450;-73
2023/03/27 12:45:29;;;;;;;1.80;1.00;;;7.40;94.90;;;;;;4992648;28;20486;-73
2023/03/27 12:48:09;;;;;;;1.20;1.10;;;7.50;95.60;;;;;;5061074;28;20454;-72
2023/03/27 12:50:56;;;;;;;1.40;1.30;;;7.60;95.40;;;;;;5072510;28;20169;-73
2023/03/27 12:53:24;;;;;;;3.13;1.17;;;7.50;95.30;;;;;;5072573;28;20441;-72
2023/03/27 12:56:16;;;;;;;1.83;0.97;;;7.60;96.10;;;;;;5072446;28;20497;-73
2023/03/27 12:58:44;;;;;;;1.00;1.00;;;7.70;96.30;;;;;;5072362;28;20437;-73
2023/03/27 13:01:16;;;;;;;2.30;0.97;;;7.70;96.20;;;;;;5072388;28;20543;-74
2023/03/27 13:04:11;;;;;;;2.03;1.10;;;7.50;96.20;;;;;;5072665;28;20409;-74
2023/03/27 13:06:50;;;;;;;1.10;1.00;;;7.50;96.90;;;;;;5065470;28;20410;-74
2023/03/27 13:10:00;;;;;;;1.30;1.10;;;7.10;97.00;;;;;;5073893;28;20913;-73
2023/03/27 13:12:44;;;;;;;1.43;1.30;;;6.80;99.10;;;;;;5070398;28;20443;-72
2023/03/27 13:15:28;;;;;;;2.03;1.10;;;6.70;99.90;;;;;;5071192;28;20416;-73
2023/03/27 13:18:13;;;;;;;1.30;1.13;;;6.50;99.90;;;;;;5071566;28;20412;-74
2023/03/27 13:21:08;;;;;;;2.30;1.27;;;6.30;99.90;;;;;;5069541;28;20992;-73
2023/03/27 13:23:46;;;;;;;2.80;1.50;;;6.40;99.90;;;;;;5018032;28;20431;-73
2023/03/27 13:26:48;;;;;;;1.50;1.27;;;6.70;99.90;;;;;;5072377;28;20401;-75
2023/03/27 13:29:18;;;;;;;5.83;2.50;;;6.70;99.90;;;;;;5071742;28;20404;-71